Tuesday, September 02, 2014
23:47 UTC
  |  Log In   |  Register Free
Airport Search:

Smithville Municipal Airport
(0A3)

Smithville Municipal Airport Diagram
No Airport Diagram Available

FAA data valid effective July 24, 2014 until September 18, 2014 (unless otherwise noted).

 
 
 
 
 
 
 
 
 
 
 
 
 
 

Current Aviation Weather for Smithville Municipal Airport (0A3)

The most recent METAR observation for KSRB was updated at: 2215 UTC
METAR Summary (Translated METAR)
KSRB
022215Z AUTO 23008KT 10SM SCT044 SCT050 31/23 A2996 RMK
KCSV
(22.5 nm SE from KSRB)
022153Z AUTO 23004KT 10SM SCT048 30/19 A3003 RMK AO2 LTG DSNT N AND NW SLP142 T03000194
TAF Summary (Translated TAF)
KCSV
(22.5 nm SE from KSRB)
021720Z 0218/0318 24008KT P6SM SCT025 BKN250 TEMPO 0220/0224 VRB15G30KT 2SM TSRA OVC025CB FM030000 26002KT P6SM SCT035 BKN120 FM030700 00000KT 4SM BR SKC TEMPO 0310/0312 2SM BR FM031300 VRB02KT P6SM SCT015
  Airport Weather Conditions for 0A3

Current weather conditions are
not available for 0A3


The nearest NOAA weather station
is at SRB, (14.2 nm NE from 0A3)
  
 Current Weather at SRB
79° F
Overcast
North winds at 10.4 mph
SRB NOAA Radar

Pressure: 29.98 in
Humidity: 84%
Wind: North at 10.4 MPH (9 KT)
Dew Point: 73.4°F
Visibility: 10.00 mi


Airport Weather Forecast for 0A3

Translated METAR and TAF for KSRB
Translated METAR for KSRB (2341 UTC 02 September 2014)
found at http://aviationweather.gov/adds/metars/
 
METAR text: KSRB 022335Z AUTO 08013G79KT 3/4SM SQ OVC002 22/21 A3000 RMK
Conditions at: KSRB (SPARTA , TN, US) observed 2335 UTC 02 September 2014
Temperature: 22.0°C (72°F)
Dewpoint: 21.0°C (70°F) [RH = 94%]
Pressure (altimeter): 30.00 inches Hg (1016.0 mb)
Winds: from the E (80 degrees) at 15 MPH (13 knots; 6.8 m/s)
gusting to 91 MPH (79 knots; 41.1 m/s)
Visibility: 0.75 miles (1.21 km)
Ceiling: 200 feet AGL
Clouds: overcast cloud deck at 200 feet AGL
Weather: SQ  (squal)
Translated TAF for KSRB

There is no translated TAF available for this airport

Find All Airport Services Find A Hotel Find A Rental Car Find A Golf Course Find A Restaurant $100 Hamburger



FBO's on the Field
FBO Company Facility Photos Services Transportation Aviation Fuel Prices: Prices include tax
Catering Weather Repair Courtesy Rental Type 100LL JetA JetA+ MOGAS 8087
 
Smithville Municipal Airport

This FBO has not yet been rated
FS:Shell
Last Updated: Aug-07
Login to update fuel prices
SS:
Contact Smithville Municipal AirportMore FBO Information
 
Add another FBO Facility Photos Catering Weather Repair Courtesy Rental Type 100LL JetA JetA+ MOGAS 8087
Services Transportation Aviation Fuel Prices: Prices include tax


GlobalAir.com Airport Resource Center model-print
model-print
model-print
model-print